createdAt,value
2022-09-17T00:00:16.023Z,8.13
2022-09-17T00:02:55.885Z,13.77
2022-09-17T00:05:26.752Z,12.32
2022-09-17T00:07:57.058Z,6.30
2022-09-17T00:10:27.586Z,7.20
2022-09-17T00:12:58.352Z,6.63
2022-09-17T00:15:29.058Z,12.90
2022-09-17T00:18:02.530Z,6.82
2022-09-17T00:20:32.793Z,7.32
2022-09-17T00:23:03.277Z,7.97
2022-09-17T00:25:33.852Z,7.55
2022-09-17T00:28:04.720Z,10.45
2022-09-17T00:30:35.541Z,9.60
2022-09-17T00:33:08.913Z,6.63
2022-09-17T00:35:39.164Z,8.60
2022-09-17T00:38:09.875Z,9.15
2022-09-17T00:40:40.568Z,10.23
2022-09-17T00:43:14.971Z,8.10
2022-09-17T00:45:45.610Z,14.38
2022-09-17T00:48:24.889Z,9.65
2022-09-17T00:50:56.247Z,10.32
2022-09-17T00:53:28.065Z,9.65
2022-09-17T00:56:02.569Z,13.43
2022-09-17T00:58:40.469Z,9.75
2022-09-17T01:01:12.173Z,8.18
2022-09-17T01:03:45.752Z,10.35
2022-09-17T01:06:25.820Z,10.25
2022-09-17T01:09:13.536Z,10.25
2022-09-17T01:11:57.888Z,16.27
2022-09-17T01:14:41.604Z,10.43
2022-09-17T01:17:23.093Z,8.80
2022-09-17T01:20:21.985Z,6.47
2022-09-17T01:23:03.454Z,10.93
2022-09-17T01:25:45.869Z,9.02
2022-09-17T01:28:33.826Z,8.35
2022-09-17T01:31:36.214Z,10.95
2022-09-17T01:34:19.795Z,16.92
2022-09-17T01:37:03.440Z,16.95
2022-09-17T01:39:47.280Z,8.50
2022-09-17T01:42:27.818Z,19.23
2022-09-17T01:45:04.318Z,7.80
2022-09-17T01:47:39.930Z,8.98
2022-09-17T01:50:18.359Z,13.15
2022-09-17T01:52:52.724Z,17.85
2022-09-17T01:55:26.198Z,12.50
2022-09-17T01:58:00.632Z,11.20
2022-09-17T02:00:31.652Z,10.55
2022-09-17T02:03:06.521Z,13.95
2022-09-17T02:05:44.771Z,19.10
2022-09-17T02:08:20.133Z,8.65
2022-09-17T02:10:56.019Z,10.38
2022-09-17T02:13:31.423Z,12.13
2022-09-17T02:16:08.894Z,13.98
2022-09-17T02:18:43.568Z,17.85
2022-09-17T02:21:20.676Z,18.70
2022-09-17T02:24:01.132Z,12.13
2022-09-17T02:26:31.894Z,14.73
2022-09-17T02:29:09.577Z,12.88
2022-09-17T02:31:42.770Z,19.08
2022-09-17T02:34:14.588Z,16.00
2022-09-17T02:36:47.761Z,21.08
2022-09-17T02:39:18.363Z,21.73
2022-09-17T02:41:55.832Z,21.50
2022-09-17T02:44:37.875Z,19.35
2022-09-17T02:47:38.007Z,18.95
2022-09-17T02:50:30.098Z,12.00
2022-09-17T02:53:21.625Z,19.17
2022-09-17T02:56:04.331Z,21.65
2022-09-17T02:58:41.281Z,8.52
2022-09-17T03:01:19.454Z,13.15
2022-09-17T03:03:52.473Z,12.13
2022-09-17T03:06:23.330Z,13.07
2022-09-17T03:08:57.808Z,8.13
2022-09-17T03:11:28.225Z,13.18
2022-09-17T03:13:59.174Z,10.52
2022-09-17T03:16:29.499Z,11.88
2022-09-17T03:18:59.809Z,10.18
2022-09-17T03:21:30.351Z,13.70
2022-09-17T03:24:03.435Z,12.25
2022-09-17T03:26:33.865Z,14.00
2022-09-17T03:29:04.286Z,18.38
2022-09-17T03:31:35.064Z,9.00
2022-09-17T03:34:05.530Z,7.80
2022-09-17T03:36:36.001Z,10.60
2022-09-17T03:39:09.031Z,12.48
2022-09-17T03:41:39.898Z,10.43
2022-09-17T03:44:10.797Z,11.93
2022-09-17T03:46:41.550Z,12.60
2022-09-17T03:49:12.190Z,15.23
2022-09-17T03:51:42.548Z,12.30
2022-09-17T03:54:15.938Z,9.30
2022-09-17T03:56:46.380Z,12.95
2022-09-17T03:59:16.566Z,11.00
2022-09-17T04:01:47.006Z,13.13
2022-09-17T04:04:17.346Z,9.98
2022-09-17T04:06:47.458Z,7.13
2022-09-17T04:09:20.804Z,12.73
2022-09-17T04:11:51.168Z,10.23
2022-09-17T04:14:21.744Z,14.85
2022-09-17T04:16:52.019Z,14.63
2022-09-17T04:19:22.550Z,8.18
2022-09-17T04:21:53.306Z,9.07
2022-09-17T04:24:26.361Z,8.90
2022-09-17T04:26:57.041Z,8.18
2022-09-17T04:29:27.826Z,8.95
2022-09-17T04:31:58.813Z,9.50
2022-09-17T04:34:29.583Z,11.40
2022-09-17T04:36:59.880Z,9.70
2022-09-17T04:39:32.568Z,6.57
2022-09-17T04:42:03.276Z,12.77
2022-09-17T04:44:33.684Z,16.00
2022-09-17T04:47:04.124Z,7.43
2022-09-17T04:49:34.511Z,7.70
2022-09-17T04:52:05.623Z,13.70
2022-09-17T04:54:39.310Z,6.15
2022-09-17T04:59:40.833Z,7.70
2022-09-17T05:02:11.690Z,11.80
2022-09-17T05:04:42.189Z,6.82
2022-09-17T05:07:13.986Z,13.18
2022-09-17T05:09:47.312Z,11.68
2022-09-17T05:12:34.370Z,10.68
2022-09-17T05:15:21.224Z,15.18
2022-09-17T05:18:02.414Z,12.02
2022-09-17T05:20:34.468Z,9.15
2022-09-17T05:23:20.975Z,9.00
2022-09-17T05:26:18.158Z,9.10
2022-09-17T05:29:12.796Z,8.43
2022-09-17T05:31:43.264Z,9.25
2022-09-17T05:34:13.918Z,11.65
2022-09-17T05:36:44.485Z,11.32
2022-09-17T05:39:15.064Z,11.68
2022-09-17T05:41:50.976Z,11.60
2022-09-17T05:44:22.076Z,14.52
2022-09-17T05:46:52.617Z,12.90
2022-09-17T05:49:23.049Z,16.75
2022-09-17T05:51:54.721Z,19.65
2022-09-17T05:54:25.203Z,18.35
2022-09-17T05:57:00.534Z,12.13
2022-09-17T05:59:31.329Z,14.13
2022-09-17T06:02:01.802Z,18.13
2022-09-17T06:04:34.917Z,14.85
2022-09-17T06:07:08.669Z,11.88
2022-09-17T06:09:41.089Z,11.38
2022-09-17T06:12:14.110Z,12.77
2022-09-17T06:14:44.372Z,13.23
2022-09-17T06:17:17.021Z,15.15
2022-09-17T06:19:51.078Z,12.60
2022-09-17T06:22:23.545Z,7.68
2022-09-17T06:24:54.138Z,9.88
2022-09-17T06:27:27.638Z,8.52
2022-09-17T06:29:58.592Z,14.82
2022-09-17T06:32:30.148Z,13.88
2022-09-17T06:35:00.653Z,13.90
2022-09-17T06:37:32.172Z,6.78
2022-09-17T06:40:04.635Z,8.48
2022-09-17T06:42:38.330Z,10.13
2022-09-17T06:47:46.564Z,11.65
2022-09-17T06:50:17.220Z,8.02
2022-09-17T06:52:52.690Z,11.65
2022-09-17T06:55:24.009Z,10.45
2022-09-17T06:57:57.512Z,10.63
2022-09-17T07:00:29.053Z,6.70
2022-09-17T07:03:01.816Z,19.63
2022-09-17T07:05:33.213Z,5.28
2022-09-17T07:08:05.574Z,10.55
2022-09-17T07:10:36.120Z,13.30
2022-09-17T07:13:09.418Z,9.40
2022-09-17T07:15:40.793Z,10.40
2022-09-17T07:18:13.228Z,8.68
2022-09-17T07:20:43.680Z,13.65
2022-09-17T07:23:14.379Z,8.13
2022-09-17T07:25:44.881Z,9.05
2022-09-17T07:28:18.611Z,7.93
2022-09-17T07:30:49.628Z,10.38
2022-09-17T07:33:23.676Z,8.75
2022-09-17T07:36:02.958Z,15.85
2022-09-17T07:38:34.461Z,11.30
2022-09-17T07:41:06.746Z,5.80
2022-09-17T07:43:39.837Z,7.43
2022-09-17T07:46:11.600Z,6.85
2022-09-17T07:48:41.878Z,9.27
2022-09-17T07:51:13.237Z,8.10
2022-09-17T07:53:43.761Z,11.63
2022-09-17T07:56:14.198Z,9.73
2022-09-17T07:58:47.262Z,7.60
2022-09-17T08:01:21.355Z,12.80
2022-09-17T08:03:53.663Z,7.57
2022-09-17T08:06:26.313Z,8.15
2022-09-17T08:08:57.004Z,5.45
2022-09-17T08:11:59.828Z,6.82
2022-09-17T08:14:28.421Z,11.13
2022-09-17T08:16:59.894Z,9.43
2022-09-17T08:19:30.045Z,5.60
2022-09-17T08:22:00.263Z,10.30
2022-09-17T08:24:30.874Z,6.68
2022-09-17T08:27:01.466Z,6.30
2022-09-17T08:29:35.443Z,5.68
2022-09-17T08:32:06.849Z,8.20
2022-09-17T08:34:37.650Z,9.98
2022-09-17T08:37:07.946Z,9.32
2022-09-17T08:39:38.492Z,6.18
2022-09-17T08:42:16.501Z,64.70
2022-09-17T08:44:55.200Z,19.42
2022-09-17T08:47:31.736Z,39.20
2022-09-17T08:50:06.277Z,29.58
2022-09-17T08:53:06.736Z,20.58
2022-09-17T08:55:43.328Z,179.27
2022-09-17T08:58:43.634Z,324.55
2022-09-17T09:01:31.038Z,105.20
2022-09-17T09:04:12.134Z,43.00
2022-09-17T09:06:47.782Z,22.58
2022-09-17T09:09:21.270Z,16.42
2022-09-17T09:11:53.001Z,23.95
2022-09-17T09:14:27.733Z,40.08
2022-09-17T09:17:01.884Z,54.13
2022-09-17T09:19:35.569Z,133.05
2022-09-17T09:22:08.921Z,33.78
2022-09-17T09:24:44.754Z,34.83
2022-09-17T09:27:21.206Z,63.53
2022-09-17T09:30:04.287Z,20.00
2022-09-17T09:32:55.634Z,10.20
2022-09-17T09:35:27.905Z,10.57
2022-09-17T09:38:05.007Z,13.05
2022-09-17T09:40:44.984Z,51.42
2022-09-17T09:43:23.468Z,96.88
2022-09-17T09:46:24.857Z,105.55
2022-09-17T09:49:12.117Z,103.32
2022-09-17T09:51:54.126Z,26.42
2022-09-17T09:54:45.331Z,24.63
2022-09-17T09:57:18.289Z,32.97
2022-09-17T09:59:51.524Z,20.58
2022-09-17T10:02:21.887Z,18.40
2022-09-17T10:04:55.052Z,9.38
2022-09-17T10:07:25.200Z,161.23
2022-09-17T10:10:12.280Z,280.15
2022-09-17T10:12:42.840Z,18.33
2022-09-17T10:15:28.624Z,13.05
2022-09-17T10:18:15.792Z,16.30
2022-09-17T10:21:00.010Z,36.13
2022-09-17T10:23:34.041Z,13.88
2022-09-17T10:26:04.180Z,12.27
2022-09-17T10:28:39.271Z,11.43
2022-09-17T10:31:12.411Z,20.10
2022-09-17T10:33:55.603Z,10.50
2022-09-17T10:36:45.278Z,18.80
2022-09-17T10:39:44.598Z,29.33
2022-09-17T10:42:18.160Z,10.02
2022-09-17T10:47:29.280Z,38.05
2022-09-17T10:50:03.362Z,18.15
2022-09-17T10:52:42.360Z,13.88
2022-09-17T10:55:25.529Z,6.30
2022-09-17T10:58:07.715Z,3.87
2022-09-17T11:00:48.686Z,20.33
2022-09-17T11:03:52.101Z,20.65
2022-09-17T11:06:52.565Z,36.05
2022-09-17T11:09:37.751Z,22.70
2022-09-17T11:12:23.621Z,48.20
2022-09-17T11:14:59.171Z,11.10
2022-09-17T11:18:01.297Z,12.95
2022-09-17T11:20:44.867Z,17.10
2022-09-17T11:23:30.880Z,17.80
2022-09-17T11:26:11.735Z,17.35
2022-09-17T11:31:33.878Z,16.27
2022-09-17T11:34:20.670Z,8.57
2022-09-17T11:36:58.157Z,15.40
2022-09-17T11:39:35.261Z,18.50
2022-09-17T11:42:14.024Z,23.25
2022-09-17T11:44:52.701Z,38.65
2022-09-17T11:47:27.347Z,6.88
2022-09-17T11:50:04.232Z,16.85
2022-09-17T11:52:40.642Z,12.48
2022-09-17T11:55:23.826Z,6.85
2022-09-17T11:58:04.071Z,54.33
2022-09-17T12:00:43.268Z,11.05
2022-09-17T12:03:22.230Z,5.93
2022-09-17T12:05:57.206Z,8.75
2022-09-17T12:08:34.604Z,13.18
2022-09-17T12:11:13.210Z,21.27
2022-09-17T12:13:49.611Z,13.23
2022-09-17T12:16:25.076Z,13.00
2022-09-17T12:19:04.442Z,20.30
2022-09-17T12:21:42.402Z,13.60
2022-09-17T12:24:19.716Z,14.20
2022-09-17T12:27:07.761Z,9.43
2022-09-17T12:30:07.539Z,8.63
2022-09-17T12:33:00.720Z,13.82
2022-09-17T12:36:04.496Z,6.70
2022-09-17T12:39:03.528Z,10.63
2022-09-17T12:41:46.459Z,74.28
2022-09-17T12:44:41.178Z,45.60
2022-09-17T12:47:34.635Z,24.73
2022-09-17T12:50:20.858Z,14.45
2022-09-17T12:53:04.144Z,22.25
2022-09-17T12:55:43.881Z,19.88
2022-09-17T12:58:31.890Z,28.70
2022-09-17T13:01:07.882Z,11.00
2022-09-17T13:03:46.556Z,11.35
2022-09-17T13:07:10.553Z,14.02
2022-09-17T13:10:10.329Z,7.60
2022-09-17T13:12:48.095Z,20.13
2022-09-17T13:15:40.657Z,24.92
2022-09-17T13:18:26.483Z,31.63
2022-09-17T13:21:16.826Z,9.38
2022-09-17T13:23:49.589Z,10.00
2022-09-17T13:26:21.859Z,12.87
2022-09-17T13:28:54.015Z,17.90
2022-09-17T13:31:45.313Z,14.15
2022-09-17T13:34:31.446Z,59.90
2022-09-17T13:37:06.360Z,49.13
2022-09-17T13:39:43.972Z,56.38
2022-09-17T13:42:20.610Z,95.82
2022-09-17T13:44:55.079Z,309.75
2022-09-17T13:47:29.396Z,76.82
2022-09-17T13:50:05.257Z,58.97
2022-09-17T13:52:50.673Z,15.77
2022-09-17T13:55:39.970Z,391.20
2022-09-17T13:58:13.960Z,185.52
2022-09-17T14:00:58.974Z,108.32
2022-09-17T14:03:51.071Z,97.82
2022-09-17T14:06:54.384Z,256.73
2022-09-17T14:10:04.719Z,108.63
2022-09-17T14:12:58.417Z,26.10
2022-09-17T14:15:40.650Z,65.38
2022-09-17T14:18:43.632Z,104.75
2022-09-17T14:21:25.829Z,82.05
2022-09-17T14:23:59.986Z,20.02
2022-09-17T14:27:14.401Z,22.10
2022-09-17T14:30:09.189Z,36.22
2022-09-17T14:32:45.469Z,12.20
2022-09-17T14:35:26.350Z,10.20
2022-09-17T14:38:03.222Z,43.33
2022-09-17T14:40:35.593Z,20.27
2022-09-17T14:43:06.641Z,38.72
2022-09-17T14:45:45.273Z,24.38
2022-09-17T14:48:32.041Z,22.52
2022-09-17T14:51:29.829Z,17.00
2022-09-17T14:54:19.473Z,22.58
2022-09-17T14:57:01.367Z,15.35
2022-09-17T14:59:46.431Z,10.55
2022-09-17T15:02:42.073Z,18.02
2022-09-17T15:05:26.158Z,6.88
2022-09-17T15:10:42.273Z,19.63
2022-09-17T15:13:17.761Z,18.60
2022-09-17T15:15:57.580Z,24.13
2022-09-17T15:18:36.813Z,23.02
2022-09-17T15:21:13.426Z,15.05
2022-09-17T15:23:45.919Z,13.80
2022-09-17T15:26:18.447Z,11.23
2022-09-17T15:28:49.120Z,17.02
2022-09-17T15:31:20.946Z,6.10
2022-09-17T15:33:54.157Z,31.23
2022-09-17T15:36:26.811Z,27.17
2022-09-17T15:38:57.682Z,19.50
2022-09-17T15:41:36.139Z,13.15
2022-09-17T15:44:29.736Z,20.05
2022-09-17T15:47:30.572Z,21.27
2022-09-17T15:50:17.486Z,31.65
2022-09-17T15:52:48.351Z,28.23
2022-09-17T15:55:35.838Z,10.75
2022-09-17T15:58:08.682Z,14.60
2022-09-17T16:00:41.889Z,22.43
2022-09-17T16:03:58.501Z,16.80
2022-09-17T16:06:58.055Z,13.88
2022-09-17T16:09:43.559Z,9.85
2022-09-17T16:12:16.974Z,8.20
2022-09-17T16:14:52.037Z,7.25
2022-09-17T16:17:28.703Z,10.25
2022-09-17T16:20:02.587Z,10.40
2022-09-17T16:22:39.151Z,8.98
2022-09-17T16:25:10.437Z,4.55
2022-09-17T16:27:49.456Z,6.50
2022-09-17T16:30:22.002Z,5.13
2022-09-17T16:32:53.115Z,5.35
2022-09-17T16:35:25.968Z,6.57
2022-09-17T16:37:59.677Z,8.77
2022-09-17T16:43:03.729Z,14.82
2022-09-17T16:45:34.437Z,5.07
2022-09-17T16:48:05.779Z,8.55
2022-09-17T16:50:36.568Z,6.57
2022-09-17T16:53:09.808Z,6.03
2022-09-17T16:55:40.091Z,7.07
2022-09-17T16:58:10.207Z,6.65
2022-09-17T17:00:41.436Z,10.95
2022-09-17T17:03:15.204Z,13.95
2022-09-17T17:05:45.539Z,16.35
2022-09-17T17:08:18.825Z,139.60
2022-09-17T17:10:52.999Z,93.47
2022-09-17T17:13:23.272Z,57.80
2022-09-17T17:15:54.240Z,196.40
2022-09-17T17:18:25.221Z,281.60
2022-09-17T17:20:55.280Z,71.20
2022-09-17T17:23:28.228Z,85.53
2022-09-17T17:25:58.315Z,27.77
2022-09-17T17:28:28.817Z,33.00
2022-09-17T17:30:59.262Z,99.47
2022-09-17T17:33:29.582Z,105.05
2022-09-17T17:36:07.834Z,489.10
2022-09-17T17:38:41.766Z,291.92
2022-09-17T17:41:13.669Z,320.83
2022-09-17T17:43:45.075Z,431.45
2022-09-17T17:46:15.925Z,360.52
2022-09-17T17:48:46.937Z,301.65
2022-09-17T17:51:18.747Z,403.80
2022-09-17T17:53:51.416Z,284.35
2022-09-17T17:56:21.575Z,248.55
2022-09-17T17:58:52.084Z,198.30
2022-09-17T18:01:24.695Z,175.40
2022-09-17T18:04:00.213Z,82.82
2022-09-17T18:06:31.610Z,138.52
2022-09-17T18:09:05.438Z,137.75
2022-09-17T18:11:36.394Z,144.65
2022-09-17T18:14:06.602Z,111.00
2022-09-17T18:16:36.752Z,179.35
2022-09-17T18:19:06.972Z,126.97
2022-09-17T18:21:37.110Z,117.00
2022-09-17T18:24:10.012Z,76.35
2022-09-17T18:26:40.218Z,121.43
2022-09-17T18:29:11.855Z,87.95
2022-09-17T18:31:42.295Z,189.35
2022-09-17T18:34:16.227Z,101.88
2022-09-17T18:36:50.773Z,135.75
2022-09-17T18:39:57.115Z,104.85
2022-09-17T18:42:14.756Z,108.23
2022-09-17T18:44:44.818Z,149.63
2022-09-17T18:47:15.241Z,86.90
2022-09-17T18:49:45.354Z,131.43
2022-09-17T18:52:15.412Z,99.68
2022-09-17T18:54:48.685Z,146.68
2022-09-17T18:57:21.393Z,102.03
2022-09-17T18:59:51.554Z,62.58
2022-09-17T19:02:21.901Z,100.65
2022-09-17T19:04:52.006Z,27.58
2022-09-17T19:07:22.167Z,60.55
2022-09-17T19:09:54.963Z,58.60
2022-09-17T19:12:25.050Z,62.67
2022-09-17T19:14:55.249Z,31.58
2022-09-17T19:17:25.475Z,403.27
2022-09-17T19:19:55.595Z,420.73
2022-09-17T19:22:26.725Z,472.73
2022-09-17T19:24:59.449Z,366.48
2022-09-17T19:27:29.844Z,217.20
2022-09-17T19:30:00.721Z,207.95
2022-09-17T19:32:31.977Z,90.35
2022-09-17T19:35:02.573Z,263.85
2022-09-17T19:37:32.693Z,161.70
2022-09-17T19:40:06.832Z,203.55
2022-09-17T19:42:37.346Z,125.65
2022-09-17T19:45:09.375Z,167.43
2022-09-17T19:47:39.813Z,76.40
2022-09-17T19:50:10.772Z,87.40
2022-09-17T19:52:40.860Z,113.45
2022-09-17T19:55:14.746Z,187.85
2022-09-17T19:57:45.006Z,93.45
2022-09-17T20:00:17.092Z,64.68
2022-09-17T20:02:47.429Z,51.38
2022-09-17T20:05:17.911Z,88.35
2022-09-17T20:07:48.151Z,53.33
2022-09-17T20:10:21.249Z,45.08
2022-09-17T20:12:51.367Z,20.85
2022-09-17T20:15:21.962Z,28.58
2022-09-17T20:17:52.304Z,5.68
2022-09-17T20:20:24.149Z,23.90
2022-09-17T20:22:55.123Z,18.55
2022-09-17T20:25:27.942Z,21.95
2022-09-17T20:27:58.156Z,25.37
2022-09-17T20:30:31.407Z,18.15
2022-09-17T20:33:01.520Z,34.47
2022-09-17T20:35:31.845Z,13.63
2022-09-17T20:39:06.750Z,17.88
2022-09-17T20:40:54.825Z,21.70
2022-09-17T20:43:25.068Z,13.50
2022-09-17T20:45:58.989Z,9.82
2022-09-17T20:48:29.188Z,10.52
2022-09-17T20:51:00.392Z,10.60
2022-09-17T20:53:31.816Z,9.60
2022-09-17T20:56:06.748Z,21.48
2022-09-17T20:58:45.524Z,19.80
2022-09-17T21:01:20.914Z,53.65
2022-09-17T21:03:52.860Z,26.52
2022-09-17T21:06:24.643Z,45.92
2022-09-17T21:08:56.066Z,60.78
2022-09-17T21:11:29.259Z,62.92
2022-09-17T21:13:59.602Z,40.83
2022-09-17T21:16:30.230Z,20.20
2022-09-17T21:19:02.402Z,14.25
2022-09-17T21:21:34.583Z,13.50
2022-09-17T21:24:05.769Z,6.15
2022-09-17T21:26:38.979Z,8.25
2022-09-17T21:29:09.321Z,8.10
2022-09-17T21:31:39.903Z,14.40
2022-09-17T21:34:13.167Z,13.55
2022-09-17T21:36:45.434Z,13.80
2022-09-17T21:39:17.083Z,13.27
2022-09-17T21:41:51.175Z,20.58
2022-09-17T21:44:21.217Z,7.72
2022-09-17T21:46:57.078Z,68.65
2022-09-17T21:49:27.429Z,68.55
2022-09-17T21:51:57.533Z,21.08
2022-09-17T21:54:28.525Z,20.20
2022-09-17T21:57:02.098Z,16.45
2022-09-17T21:59:32.332Z,11.38
2022-09-17T22:02:02.788Z,11.48
2022-09-17T22:04:34.722Z,12.05
2022-09-17T22:07:05.317Z,18.27
2022-09-17T22:09:35.622Z,17.77
2022-09-17T22:12:19.281Z,12.23
2022-09-17T22:14:54.326Z,17.75
2022-09-17T22:17:25.222Z,18.20
2022-09-17T22:19:56.347Z,14.63
2022-09-17T22:22:27.658Z,22.17
2022-09-17T22:24:59.189Z,13.70
2022-09-17T22:27:34.362Z,16.52
2022-09-17T22:30:09.127Z,16.55
2022-09-17T22:32:39.863Z,10.73
2022-09-17T22:35:13.743Z,9.93
2022-09-17T22:37:46.583Z,7.78
2022-09-17T22:40:18.312Z,7.90
2022-09-17T22:42:53.632Z,12.75
2022-09-17T22:45:26.253Z,9.43
2022-09-17T22:50:34.712Z,5.20
2022-09-17T22:53:05.066Z,4.38
2022-09-17T22:55:35.717Z,4.80
2022-09-17T22:58:09.043Z,2.13
2022-09-17T23:00:44.025Z,2.78
2022-09-17T23:03:16.369Z,3.92
2022-09-17T23:05:48.710Z,5.75
2022-09-17T23:08:19.235Z,4.18
2022-09-17T23:10:49.639Z,6.57
2022-09-17T23:13:23.135Z,5.78
2022-09-17T23:15:53.713Z,3.15
2022-09-17T23:18:25.765Z,9.23
2022-09-17T23:21:10.113Z,3.88
2022-09-17T23:23:40.483Z,7.55
2022-09-17T23:26:13.618Z,4.97
2022-09-17T23:28:46.488Z,4.70
2022-09-17T23:31:19.217Z,9.15
2022-09-17T23:33:52.837Z,8.63
2022-09-17T23:36:25.581Z,4.07
2022-09-17T23:38:57.431Z,9.98
2022-09-17T23:41:30.035Z,8.27
2022-09-17T23:44:04.731Z,10.70
2022-09-17T23:46:37.801Z,5.15
2022-09-17T23:49:08.590Z,6.53
2022-09-17T23:51:39.913Z,7.03
2022-09-17T23:54:10.276Z,4.90
2022-09-17T23:56:40.598Z,9.00
2022-09-17T23:59:14.235Z,7.35
